sensor_id;sensor_type;location;lat;lon;timestamp;pressure;altitude;pressure_sealevel;temperature;humidity
68994;BME280;56054;50.968;5.816;2023-07-20T00:00:46;100627.88;;;18.18;100.00
68994;BME280;56054;50.968;5.816;2023-07-20T00:03:53;100622.47;;;18.12;100.00
68994;BME280;56054;50.968;5.816;2023-07-20T00:07:00;100625.13;;;18.13;100.00
68994;BME280;56054;50.968;5.816;2023-07-20T00:10:07;100632.03;;;18.10;100.00
68994;BME280;56054;50.968;5.816;2023-07-20T00:13:14;100624.47;;;18.21;100.00
68994;BME280;56054;50.968;5.816;2023-07-20T00:16:21;100624.75;;;18.30;100.00
68994;BME280;56054;50.968;5.816;2023-07-20T00:19:28;100633.94;;;18.15;100.00
68994;BME280;56054;50.968;5.816;2023-07-20T00:22:35;100628.22;;;18.00;100.00
68994;BME280;56054;50.968;5.816;2023-07-20T00:25:42;100629.28;;;18.07;100.00
68994;BME280;56054;50.968;5.816;2023-07-20T00:28:50;100634.47;;;18.04;100.00
68994;BME280;56054;50.968;5.816;2023-07-20T00:31:58;100628.91;;;17.94;100.00
68994;BME280;56054;50.968;5.816;2023-07-20T00:35:05;100618.75;;;18.07;100.00
68994;BME280;56054;50.968;5.816;2023-07-20T00:38:12;100623.84;;;18.01;100.00
68994;BME280;56054;50.968;5.816;2023-07-20T00:41:19;100625.53;;;17.99;100.00
68994;BME280;56054;50.968;5.816;2023-07-20T00:44:26;100625.91;;;18.11;100.00
68994;BME280;56054;50.968;5.816;2023-07-20T00:47:33;100631.75;;;18.01;100.00
68994;BME280;56054;50.968;5.816;2023-07-20T00:50:40;100631.50;;;17.93;100.00
68994;BME280;56054;50.968;5.816;2023-07-20T00:53:48;100621.56;;;17.84;100.00
68994;BME280;56054;50.968;5.816;2023-07-20T00:56:55;100620.38;;;18.02;100.00
68994;BME280;56054;50.968;5.816;2023-07-20T01:00:02;100623.00;;;18.02;100.00
68994;BME280;56054;50.968;5.816;2023-07-20T01:03:10;100621.06;;;17.96;100.00
68994;BME280;56054;50.968;5.816;2023-07-20T01:09:49;100619.72;;;17.80;100.00
68994;BME280;56054;50.968;5.816;2023-07-20T01:13:00;100628.00;;;17.92;100.00
68994;BME280;56054;50.968;5.816;2023-07-20T01:16:08;100622.47;;;17.85;100.00
68994;BME280;56054;50.968;5.816;2023-07-20T01:19:15;100627.50;;;17.79;100.00
68994;BME280;56054;50.968;5.816;2023-07-20T01:32:55;100630.53;;;17.64;100.00
68994;BME280;56054;50.968;5.816;2023-07-20T01:36:02;100632.13;;;17.59;100.00
68994;BME280;56054;50.968;5.816;2023-07-20T01:39:16;100627.03;;;17.65;100.00
68994;BME280;56054;50.968;5.816;2023-07-20T01:42:24;100624.34;;;17.62;100.00
68994;BME280;56054;50.968;5.816;2023-07-20T01:45:31;100627.03;;;17.63;100.00
68994;BME280;56054;50.968;5.816;2023-07-20T01:48:38;100632.22;;;17.62;100.00
68994;BME280;56054;50.968;5.816;2023-07-20T01:51:45;100641.75;;;17.58;100.00
68994;BME280;56054;50.968;5.816;2023-07-20T01:54:52;100628.13;;;17.44;100.00
68994;BME280;56054;50.968;5.816;2023-07-20T01:57:59;100626.75;;;17.55;100.00
68994;BME280;56054;50.968;5.816;2023-07-20T02:01:06;100621.88;;;17.41;100.00
68994;BME280;56054;50.968;5.816;2023-07-20T02:04:13;100622.16;;;17.48;100.00
68994;BME280;56054;50.968;5.816;2023-07-20T02:07:21;100627.69;;;17.58;100.00
68994;BME280;56054;50.968;5.816;2023-07-20T02:10:28;100612.94;;;17.36;100.00
68994;BME280;56054;50.968;5.816;2023-07-20T02:13:35;100621.13;;;17.45;100.00
68994;BME280;56054;50.968;5.816;2023-07-20T02:16:42;100614.78;;;17.38;100.00
68994;BME280;56054;50.968;5.816;2023-07-20T02:19:56;100620.03;;;17.38;100.00
68994;BME280;56054;50.968;5.816;2023-07-20T02:23:04;100617.84;;;17.25;100.00
68994;BME280;56054;50.968;5.816;2023-07-20T02:26:11;100617.88;;;17.26;100.00
68994;BME280;56054;50.968;5.816;2023-07-20T02:29:19;100615.63;;;17.11;100.00
68994;BME280;56054;50.968;5.816;2023-07-20T02:32:26;100617.06;;;17.27;100.00
68994;BME280;56054;50.968;5.816;2023-07-20T02:35:33;100623.91;;;17.24;100.00
68994;BME280;56054;50.968;5.816;2023-07-20T02:38:40;100617.34;;;17.09;100.00
68994;BME280;56054;50.968;5.816;2023-07-20T02:41:47;100617.53;;;17.16;100.00
68994;BME280;56054;50.968;5.816;2023-07-20T02:44:54;100619.03;;;17.09;100.00
68994;BME280;56054;50.968;5.816;2023-07-20T02:48:01;100619.00;;;17.07;100.00
68994;BME280;56054;50.968;5.816;2023-07-20T02:51:08;100626.47;;;16.97;100.00
68994;BME280;56054;50.968;5.816;2023-07-20T02:54:15;100625.06;;;16.81;100.00
68994;BME280;56054;50.968;5.816;2023-07-20T02:57:22;100629.44;;;16.82;100.00
68994;BME280;56054;50.968;5.816;2023-07-20T03:00:29;100633.28;;;16.90;100.00
68994;BME280;56054;50.968;5.816;2023-07-20T03:03:36;100627.84;;;16.85;100.00
68994;BME280;56054;50.968;5.816;2023-07-20T03:06:43;100629.25;;;16.77;100.00
68994;BME280;56054;50.968;5.816;2023-07-20T03:09:50;100646.38;;;16.90;100.00
68994;BME280;56054;50.968;5.816;2023-07-20T03:12:57;100647.22;;;16.89;100.00
68994;BME280;56054;50.968;5.816;2023-07-20T03:16:04;100662.97;;;16.89;100.00
68994;BME280;56054;50.968;5.816;2023-07-20T03:19:11;100648.16;;;16.91;100.00
68994;BME280;56054;50.968;5.816;2023-07-20T03:22:18;100646.38;;;16.90;100.00
68994;BME280;56054;50.968;5.816;2023-07-20T03:25:25;100643.25;;;17.00;100.00
68994;BME280;56054;50.968;5.816;2023-07-20T03:28:32;100650.25;;;16.77;100.00
68994;BME280;56054;50.968;5.816;2023-07-20T03:31:39;100660.75;;;16.77;100.00
68994;BME280;56054;50.968;5.816;2023-07-20T03:34:46;100659.34;;;16.85;100.00
68994;BME280;56054;50.968;5.816;2023-07-20T03:37:53;100659.38;;;16.87;100.00
68994;BME280;56054;50.968;5.816;2023-07-20T03:41:00;100659.44;;;16.88;100.00
68994;BME280;56054;50.968;5.816;2023-07-20T03:44:07;100659.16;;;17.05;100.00
68994;BME280;56054;50.968;5.816;2023-07-20T03:47:15;100661.97;;;17.09;100.00
68994;BME280;56054;50.968;5.816;2023-07-20T03:50:22;100666.44;;;17.12;100.00
68994;BME280;56054;50.968;5.816;2023-07-20T03:53:29;100665.91;;;16.98;100.00
68994;BME280;56054;50.968;5.816;2023-07-20T03:56:36;100657.44;;;17.05;100.00
68994;BME280;56054;50.968;5.816;2023-07-20T03:59:45;100669.09;;;17.14;100.00
68994;BME280;56054;50.968;5.816;2023-07-20T04:02:52;100665.81;;;17.19;100.00
68994;BME280;56054;50.968;5.816;2023-07-20T04:05:59;100662.28;;;16.95;100.00
68994;BME280;56054;50.968;5.816;2023-07-20T04:09:06;100666.72;;;17.21;100.00
68994;BME280;56054;50.968;5.816;2023-07-20T04:12:13;100661.31;;;17.17;100.00
68994;BME280;56054;50.968;5.816;2023-07-20T04:15:20;100661.88;;;17.32;100.00
68994;BME280;56054;50.968;5.816;2023-07-20T04:18:27;100667.13;;;17.32;100.00
68994;BME280;56054;50.968;5.816;2023-07-20T04:21:40;100659.19;;;17.06;100.00
68994;BME280;56054;50.968;5.816;2023-07-20T04:24:47;100664.06;;;17.20;100.00
68994;BME280;56054;50.968;5.816;2023-07-20T04:27:54;100663.72;;;17.36;100.00
68994;BME280;56054;50.968;5.816;2023-07-20T04:31:14;100670.84;;;17.39;100.00
68994;BME280;56054;50.968;5.816;2023-07-20T04:34:22;100668.53;;;17.48;100.00
68994;BME280;56054;50.968;5.816;2023-07-20T04:37:29;100682.34;;;17.42;100.00
68994;BME280;56054;50.968;5.816;2023-07-20T04:40:37;100678.22;;;17.49;100.00
68994;BME280;56054;50.968;5.816;2023-07-20T04:43:45;100676.38;;;17.46;100.00
68994;BME280;56054;50.968;5.816;2023-07-20T04:47:04;100670.69;;;17.34;100.00
68994;BME280;56054;50.968;5.816;2023-07-20T04:50:12;100667.63;;;17.47;100.00
68994;BME280;56054;50.968;5.816;2023-07-20T04:53:20;100668.84;;;17.57;100.00
68994;BME280;56054;50.968;5.816;2023-07-20T04:56:28;100672.72;;;17.68;100.00
68994;BME280;56054;50.968;5.816;2023-07-20T04:59:37;100675.44;;;17.46;100.00
68994;BME280;56054;50.968;5.816;2023-07-20T05:02:44;100676.00;;;17.61;100.00
68994;BME280;56054;50.968;5.816;2023-07-20T05:05:51;100679.03;;;17.73;100.00
68994;BME280;56054;50.968;5.816;2023-07-20T05:08:58;100680.63;;;17.70;100.00
68994;BME280;56054;50.968;5.816;2023-07-20T05:12:05;100687.44;;;17.63;100.00
68994;BME280;56054;50.968;5.816;2023-07-20T05:15:12;100686.66;;;17.40;100.00
68994;BME280;56054;50.968;5.816;2023-07-20T05:18:19;100686.66;;;17.66;100.00
68994;BME280;56054;50.968;5.816;2023-07-20T05:21:26;100695.22;;;17.60;100.00
68994;BME280;56054;50.968;5.816;2023-07-20T05:24:33;100680.47;;;17.64;100.00
68994;BME280;56054;50.968;5.816;2023-07-20T05:27:40;100687.22;;;17.57;100.00
68994;BME280;56054;50.968;5.816;2023-07-20T05:30:47;100693.78;;;17.70;100.00
68994;BME280;56054;50.968;5.816;2023-07-20T05:33:54;100686.94;;;17.75;100.00
68994;BME280;56054;50.968;5.816;2023-07-20T05:37:01;100696.53;;;17.99;100.00
68994;BME280;56054;50.968;5.816;2023-07-20T05:40:08;100688.50;;;17.68;100.00
68994;BME280;56054;50.968;5.816;2023-07-20T05:43:15;100694.28;;;17.84;100.00
68994;BME280;56054;50.968;5.816;2023-07-20T05:46:22;100700.78;;;17.69;100.00
68994;BME280;56054;50.968;5.816;2023-07-20T05:49:29;100697.91;;;17.62;100.00
68994;BME280;56054;50.968;5.816;2023-07-20T05:52:36;100707.72;;;17.67;100.00
68994;BME280;56054;50.968;5.816;2023-07-20T05:55:43;100697.50;;;17.76;100.00
68994;BME280;56054;50.968;5.816;2023-07-20T05:58:50;100695.63;;;17.72;100.00
68994;BME280;56054;50.968;5.816;2023-07-20T06:01:57;100699.84;;;17.67;100.00
68994;BME280;56054;50.968;5.816;2023-07-20T06:05:04;100710.94;;;17.84;100.00
68994;BME280;56054;50.968;5.816;2023-07-20T06:08:12;100712.50;;;17.79;100.00
68994;BME280;56054;50.968;5.816;2023-07-20T06:11:19;100709.16;;;17.83;100.00
68994;BME280;56054;50.968;5.816;2023-07-20T06:14:26;100714.28;;;18.06;100.00
68994;BME280;56054;50.968;5.816;2023-07-20T06:17:33;100706.88;;;18.21;100.00
68994;BME280;56054;50.968;5.816;2023-07-20T06:20:40;100708.16;;;18.07;100.00
68994;BME280;56054;50.968;5.816;2023-07-20T06:23:47;100713.56;;;18.11;100.00
68994;BME280;56054;50.968;5.816;2023-07-20T06:26:54;100713.00;;;18.49;100.00
68994;BME280;56054;50.968;5.816;2023-07-20T06:30:01;100711.31;;;18.51;100.00
68994;BME280;56054;50.968;5.816;2023-07-20T06:33:08;100705.38;;;18.58;100.00
68994;BME280;56054;50.968;5.816;2023-07-20T06:36:18;100715.25;;;18.94;100.00
68994;BME280;56054;50.968;5.816;2023-07-20T06:39:25;100706.94;;;18.80;98.17
68994;BME280;56054;50.968;5.816;2023-07-20T06:42:32;100709.97;;;18.92;98.59
68994;BME280;56054;50.968;5.816;2023-07-20T06:45:39;100711.31;;;18.79;98.75
68994;BME280;56054;50.968;5.816;2023-07-20T06:48:46;100717.84;;;18.64;99.15
68994;BME280;56054;50.968;5.816;2023-07-20T06:51:53;100715.53;;;18.74;99.35
68994;BME280;56054;50.968;5.816;2023-07-20T06:55:00;100718.06;;;18.43;99.07
68994;BME280;56054;50.968;5.816;2023-07-20T06:58:07;100726.06;;;18.74;98.24
68994;BME280;56054;50.968;5.816;2023-07-20T07:01:14;100723.81;;;18.87;98.19
68994;BME280;56054;50.968;5.816;2023-07-20T07:04:21;100726.28;;;18.80;97.34
68994;BME280;56054;50.968;5.816;2023-07-20T07:07:28;100728.13;;;18.85;96.14
68994;BME280;56054;50.968;5.816;2023-07-20T07:10:35;100726.94;;;19.03;95.13
68994;BME280;56054;50.968;5.816;2023-07-20T07:13:42;100730.28;;;18.98;96.53
68994;BME280;56054;50.968;5.816;2023-07-20T07:16:49;100724.34;;;19.05;96.54
68994;BME280;56054;50.968;5.816;2023-07-20T07:19:56;100734.38;;;19.18;94.67
68994;BME280;56054;50.968;5.816;2023-07-20T07:23:03;100733.34;;;19.13;95.31
68994;BME280;56054;50.968;5.816;2023-07-20T07:26:10;100734.44;;;19.21;94.75
68994;BME280;56054;50.968;5.816;2023-07-20T07:29:17;100739.50;;;19.12;94.63
68994;BME280;56054;50.968;5.816;2023-07-20T07:32:25;100729.22;;;18.91;95.90
68994;BME280;56054;50.968;5.816;2023-07-20T07:35:39;100739.88;;;18.96;95.06
68994;BME280;56054;50.968;5.816;2023-07-20T07:38:46;100740.78;;;19.27;94.11
68994;BME280;56054;50.968;5.816;2023-07-20T07:41:53;100740.63;;;19.22;94.68
68994;BME280;56054;50.968;5.816;2023-07-20T07:45:00;100740.50;;;19.17;92.63
68994;BME280;56054;50.968;5.816;2023-07-20T07:48:07;100750.25;;;19.21;91.86
68994;BME280;56054;50.968;5.816;2023-07-20T07:51:14;100754.28;;;19.39;92.05
68994;BME280;56054;50.968;5.816;2023-07-20T07:54:21;100754.63;;;19.51;90.90
68994;BME280;56054;50.968;5.816;2023-07-20T07:57:28;100743.63;;;19.67;91.42
68994;BME280;56054;50.968;5.816;2023-07-20T08:00:35;100741.19;;;19.42;91.67
68994;BME280;56054;50.968;5.816;2023-07-20T08:03:44;100757.00;;;19.42;91.34
68994;BME280;56054;50.968;5.816;2023-07-20T08:06:51;100765.56;;;19.35;90.94
68994;BME280;56054;50.968;5.816;2023-07-20T08:09:58;100763.63;;;19.28;90.23
68994;BME280;56054;50.968;5.816;2023-07-20T08:13:06;100759.56;;;19.39;89.37
68994;BME280;56054;50.968;5.816;2023-07-20T08:16:13;100756.38;;;19.52;90.67
68994;BME280;56054;50.968;5.816;2023-07-20T08:19:20;100759.97;;;19.54;88.45
68994;BME280;56054;50.968;5.816;2023-07-20T08:22:27;100755.91;;;19.67;88.22
68994;BME280;56054;50.968;5.816;2023-07-20T08:25:36;100763.28;;;19.79;88.15
68994;BME280;56054;50.968;5.816;2023-07-20T08:28:44;100755.63;;;19.88;88.25
68994;BME280;56054;50.968;5.816;2023-07-20T08:31:51;100758.94;;;19.81;88.43
68994;BME280;56054;50.968;5.816;2023-07-20T08:34:58;100756.94;;;19.71;90.11
68994;BME280;56054;50.968;5.816;2023-07-20T08:38:05;100754.63;;;19.84;89.39
68994;BME280;56054;50.968;5.816;2023-07-20T08:41:12;100756.81;;;19.67;88.30
68994;BME280;56054;50.968;5.816;2023-07-20T08:44:19;100762.19;;;19.71;86.53
68994;BME280;56054;50.968;5.816;2023-07-20T08:47:26;100764.47;;;19.92;85.53
68994;BME280;56054;50.968;5.816;2023-07-20T08:50:34;100755.22;;;20.07;85.13
68994;BME280;56054;50.968;5.816;2023-07-20T08:53:41;100760.22;;;20.33;83.43
68994;BME280;56054;50.968;5.816;2023-07-20T08:56:49;100758.28;;;20.62;80.89
68994;BME280;56054;50.968;5.816;2023-07-20T08:59:57;100754.88;;;20.66;77.20
68994;BME280;56054;50.968;5.816;2023-07-20T09:03:04;100755.34;;;20.48;80.12
68994;BME280;56054;50.968;5.816;2023-07-20T09:06:11;100766.84;;;20.52;79.02
68994;BME280;56054;50.968;5.816;2023-07-20T09:09:18;100758.13;;;20.18;80.32
68994;BME280;56054;50.968;5.816;2023-07-20T09:12:25;100753.03;;;20.26;80.08
68994;BME280;56054;50.968;5.816;2023-07-20T09:15:32;100750.69;;;20.76;78.09
68994;BME280;56054;50.968;5.816;2023-07-20T09:18:39;100751.25;;;21.02;76.49
68994;BME280;56054;50.968;5.816;2023-07-20T09:21:48;100744.41;;;21.12;76.95
68994;BME280;56054;50.968;5.816;2023-07-20T09:24:55;100744.31;;;21.51;75.28
68994;BME280;56054;50.968;5.816;2023-07-20T09:28:02;100746.00;;;21.48;75.50
68994;BME280;56054;50.968;5.816;2023-07-20T09:31:17;100751.59;;;21.63;73.96
68994;BME280;56054;50.968;5.816;2023-07-20T09:34:24;100760.28;;;21.57;73.29
68994;BME280;56054;50.968;5.816;2023-07-20T09:37:33;100754.06;;;21.54;72.11
68994;BME280;56054;50.968;5.816;2023-07-20T09:40:40;100749.25;;;21.82;71.59
68994;BME280;56054;50.968;5.816;2023-07-20T09:43:49;100759.13;;;21.42;70.98
68994;BME280;56054;50.968;5.816;2023-07-20T09:46:56;100758.19;;;21.40;70.46
68994;BME280;56054;50.968;5.816;2023-07-20T09:50:04;100754.50;;;21.78;71.56
68994;BME280;56054;50.968;5.816;2023-07-20T09:53:11;100740.25;;;22.20;69.60
68994;BME280;56054;50.968;5.816;2023-07-20T09:56:21;100745.59;;;21.73;68.73
68994;BME280;56054;50.968;5.816;2023-07-20T09:59:28;100746.66;;;21.83;69.48
68994;BME280;56054;50.968;5.816;2023-07-20T10:02:37;100735.44;;;22.51;68.15
68994;BME280;56054;50.968;5.816;2023-07-20T10:05:54;100747.44;;;22.31;67.93
68994;BME280;56054;50.968;5.816;2023-07-20T10:09:02;100737.88;;;22.39;67.80
68994;BME280;56054;50.968;5.816;2023-07-20T10:12:10;100738.72;;;22.99;65.19
68994;BME280;56054;50.968;5.816;2023-07-20T10:15:20;100737.63;;;22.23;68.17
68994;BME280;56054;50.968;5.816;2023-07-20T10:18:34;100743.94;;;21.78;70.05
68994;BME280;56054;50.968;5.816;2023-07-20T10:21:48;100738.25;;;22.07;68.26
68994;BME280;56054;50.968;5.816;2023-07-20T10:24:58;100728.56;;;22.09;68.57
68994;BME280;56054;50.968;5.816;2023-07-20T10:28:06;100730.19;;;22.01;66.19
68994;BME280;56054;50.968;5.816;2023-07-20T10:31:13;100728.16;;;22.36;65.44
68994;BME280;56054;50.968;5.816;2023-07-20T10:34:22;100728.81;;;22.87;65.86
68994;BME280;56054;50.968;5.816;2023-07-20T10:38:01;100723.34;;;22.72;64.98
68994;BME280;56054;50.968;5.816;2023-07-20T10:44:30;100707.75;;;22.95;61.89
68994;BME280;56054;50.968;5.816;2023-07-20T10:47:45;100708.69;;;22.98;62.42
68994;BME280;56054;50.968;5.816;2023-07-20T10:51:13;100705.16;;;22.99;61.06
68994;BME280;56054;50.968;5.816;2023-07-20T10:57:30;100697.59;;;23.33;60.04
68994;BME280;56054;50.968;5.816;2023-07-20T11:00:38;100706.97;;;23.00;61.56
68994;BME280;56054;50.968;5.816;2023-07-20T11:04:02;100699.56;;;23.51;61.08
68994;BME280;56054;50.968;5.816;2023-07-20T11:07:23;100700.66;;;22.94;61.65
68994;BME280;56054;50.968;5.816;2023-07-20T11:10:42;100698.22;;;23.11;62.16
68994;BME280;56054;50.968;5.816;2023-07-20T11:13:58;100705.66;;;22.69;62.72
68994;BME280;56054;50.968;5.816;2023-07-20T11:17:13;100703.06;;;22.74;61.92
68994;BME280;56054;50.968;5.816;2023-07-20T11:20:21;100704.66;;;22.62;62.06
68994;BME280;56054;50.968;5.816;2023-07-20T11:23:31;100699.06;;;22.39;62.11
68994;BME280;56054;50.968;5.816;2023-07-20T11:26:46;100697.47;;;22.52;62.55
68994;BME280;56054;50.968;5.816;2023-07-20T11:29:53;100695.56;;;22.42;62.24
68994;BME280;56054;50.968;5.816;2023-07-20T11:33:00;100688.72;;;22.56;62.22
68994;BME280;56054;50.968;5.816;2023-07-20T11:36:08;100696.34;;;23.02;61.10
68994;BME280;56054;50.968;5.816;2023-07-20T11:39:17;100695.47;;;23.01;61.47
68994;BME280;56054;50.968;5.816;2023-07-20T11:42:24;100698.88;;;22.94;61.63
68994;BME280;56054;50.968;5.816;2023-07-20T11:45:31;100693.56;;;22.91;60.45
68994;BME280;56054;50.968;5.816;2023-07-20T11:48:38;100691.94;;;23.01;59.28
68994;BME280;56054;50.968;5.816;2023-07-20T11:51:45;100680.25;;;23.66;57.51
68994;BME280;56054;50.968;5.816;2023-07-20T11:54:52;100677.31;;;23.37;57.70
68994;BME280;56054;50.968;5.816;2023-07-20T11:58:07;100685.09;;;23.21;57.71
68994;BME280;56054;50.968;5.816;2023-07-20T12:01:14;100679.72;;;23.12;57.92
68994;BME280;56054;50.968;5.816;2023-07-20T12:04:23;100665.66;;;23.21;55.20
68994;BME280;56054;50.968;5.816;2023-07-20T12:07:35;100669.03;;;23.04;53.52
68994;BME280;56054;50.968;5.816;2023-07-20T12:10:42;100662.19;;;23.26;54.46
68994;BME280;56054;50.968;5.816;2023-07-20T12:13:49;100658.00;;;23.48;53.81
68994;BME280;56054;50.968;5.816;2023-07-20T12:16:56;100658.84;;;23.46;54.91
68994;BME280;56054;50.968;5.816;2023-07-20T12:20:03;100664.78;;;23.22;56.65
68994;BME280;56054;50.968;5.816;2023-07-20T12:23:11;100666.50;;;23.17;56.03
68994;BME280;56054;50.968;5.816;2023-07-20T12:26:19;100656.72;;;23.11;57.16
68994;BME280;56054;50.968;5.816;2023-07-20T12:29:26;100655.97;;;23.26;56.62
68994;BME280;56054;50.968;5.816;2023-07-20T12:32:33;100642.78;;;23.31;56.37
68994;BME280;56054;50.968;5.816;2023-07-20T12:35:40;100659.50;;;23.23;56.37
68994;BME280;56054;50.968;5.816;2023-07-20T12:38:47;100651.47;;;23.14;56.23
68994;BME280;56054;50.968;5.816;2023-07-20T12:41:54;100642.84;;;23.38;56.68
68994;BME280;56054;50.968;5.816;2023-07-20T12:45:01;100643.84;;;23.49;55.74
68994;BME280;56054;50.968;5.816;2023-07-20T12:48:08;100644.66;;;23.42;56.00
68994;BME280;56054;50.968;5.816;2023-07-20T12:51:15;100644.84;;;23.64;55.29
68994;BME280;56054;50.968;5.816;2023-07-20T12:54:22;100644.97;;;23.73;54.78
68994;BME280;56054;50.968;5.816;2023-07-20T12:57:29;100643.06;;;23.63;55.73
68994;BME280;56054;50.968;5.816;2023-07-20T13:00:36;100636.00;;;23.65;53.99
68994;BME280;56054;50.968;5.816;2023-07-20T13:03:43;100629.69;;;23.49;53.87
68994;BME280;56054;50.968;5.816;2023-07-20T13:06:50;100628.72;;;23.39;54.87
68994;BME280;56054;50.968;5.816;2023-07-20T13:10:00;100627.09;;;23.57;55.83
68994;BME280;56054;50.968;5.816;2023-07-20T13:13:07;100624.38;;;23.47;54.80
68994;BME280;56054;50.968;5.816;2023-07-20T13:16:14;100620.88;;;23.53;52.97
68994;BME280;56054;50.968;5.816;2023-07-20T13:19:21;100611.16;;;23.55;53.34
68994;BME280;56054;50.968;5.816;2023-07-20T13:25:58;100605.47;;;24.22;47.87
68994;BME280;56054;50.968;5.816;2023-07-20T13:29:05;100602.81;;;24.19;50.41
68994;BME280;56054;50.968;5.816;2023-07-20T13:32:15;100603.69;;;24.21;50.89
68994;BME280;56054;50.968;5.816;2023-07-20T13:35:29;100604.53;;;24.16;50.76
68994;BME280;56054;50.968;5.816;2023-07-20T13:38:36;100600.84;;;23.87;51.96
68994;BME280;56054;50.968;5.816;2023-07-20T13:41:44;100600.91;;;23.95;49.31
68994;BME280;56054;50.968;5.816;2023-07-20T13:44:53;100599.09;;;23.88;48.76
68994;BME280;56054;50.968;5.816;2023-07-20T13:48:00;100594.66;;;23.85;47.67
68994;BME280;56054;50.968;5.816;2023-07-20T13:51:07;100594.63;;;23.87;50.83
68994;BME280;56054;50.968;5.816;2023-07-20T13:54:14;100602.63;;;23.91;51.58
68994;BME280;56054;50.968;5.816;2023-07-20T13:57:22;100588.16;;;23.53;51.77
68994;BME280;56054;50.968;5.816;2023-07-20T14:00:29;100590.94;;;23.69;51.03
68994;BME280;56054;50.968;5.816;2023-07-20T14:03:36;100579.59;;;23.84;51.01
68994;BME280;56054;50.968;5.816;2023-07-20T14:06:44;100571.72;;;23.98;50.19
68994;BME280;56054;50.968;5.816;2023-07-20T14:09:51;100581.56;;;24.21;49.01
68994;BME280;56054;50.968;5.816;2023-07-20T14:13:00;100578.91;;;24.19;50.60
68994;BME280;56054;50.968;5.816;2023-07-20T14:16:07;100572.56;;;23.92;50.03
68994;BME280;56054;50.968;5.816;2023-07-20T14:19:14;100567.22;;;23.89;51.24
68994;BME280;56054;50.968;5.816;2023-07-20T14:22:21;100563.75;;;23.95;51.61
68994;BME280;56054;50.968;5.816;2023-07-20T14:25:28;100563.78;;;24.00;51.46
68994;BME280;56054;50.968;5.816;2023-07-20T14:28:35;100568.19;;;24.04;51.52
68994;BME280;56054;50.968;5.816;2023-07-20T14:31:42;100557.72;;;24.31;50.73
68994;BME280;56054;50.968;5.816;2023-07-20T14:34:49;100557.84;;;24.65;49.83
68994;BME280;56054;50.968;5.816;2023-07-20T14:37:56;100549.03;;;24.85;48.73
68994;BME280;56054;50.968;5.816;2023-07-20T14:41:03;100553.41;;;24.53;49.19
68994;BME280;56054;50.968;5.816;2023-07-20T14:44:10;100555.16;;;24.53;49.06
68994;BME280;56054;50.968;5.816;2023-07-20T14:47:18;100548.06;;;24.47;47.81
68994;BME280;56054;50.968;5.816;2023-07-20T14:50:25;100548.09;;;24.60;49.10
68994;BME280;56054;50.968;5.816;2023-07-20T14:53:32;100549.91;;;24.68;48.85
68994;BME280;56054;50.968;5.816;2023-07-20T14:56:39;100553.41;;;24.52;48.56
68994;BME280;56054;50.968;5.816;2023-07-20T14:59:55;100537.50;;;24.58;47.76
68994;BME280;56054;50.968;5.816;2023-07-20T15:03:02;100531.34;;;24.84;48.33
68994;BME280;56054;50.968;5.816;2023-07-20T15:06:12;100526.88;;;24.73;48.47
68994;BME280;56054;50.968;5.816;2023-07-20T15:09:27;100533.03;;;24.57;48.79
68994;BME280;56054;50.968;5.816;2023-07-20T15:12:33;100527.66;;;24.39;48.41
68994;BME280;56054;50.968;5.816;2023-07-20T15:15:40;100526.88;;;24.76;49.01
68994;BME280;56054;50.968;5.816;2023-07-20T15:18:47;100525.00;;;24.34;49.05
68994;BME280;56054;50.968;5.816;2023-07-20T15:21:54;100522.22;;;24.08;49.70
68994;BME280;56054;50.968;5.816;2023-07-20T15:25:05;100528.34;;;23.99;49.97
68994;BME280;56054;50.968;5.816;2023-07-20T15:28:12;100516.22;;;24.56;48.98
68994;BME280;56054;50.968;5.816;2023-07-20T15:31:19;100508.25;;;24.60;49.82
68994;BME280;56054;50.968;5.816;2023-07-20T15:34:26;100509.13;;;24.46;48.86
68994;BME280;56054;50.968;5.816;2023-07-20T15:37:36;100505.44;;;24.12;48.54
68994;BME280;56054;50.968;5.816;2023-07-20T15:40:44;100507.28;;;24.42;48.23
68994;BME280;56054;50.968;5.816;2023-07-20T15:43:51;100514.44;;;24.57;49.40
68994;BME280;56054;50.968;5.816;2023-07-20T15:46:58;100515.16;;;24.07;49.25
68994;BME280;56054;50.968;5.816;2023-07-20T15:50:05;100517.91;;;24.39;49.24
68994;BME280;56054;50.968;5.816;2023-07-20T15:53:12;100510.81;;;24.29;48.53
68994;BME280;56054;50.968;5.816;2023-07-20T15:56:19;100496.50;;;23.96;48.50
68994;BME280;56054;50.968;5.816;2023-07-20T15:59:26;100508.97;;;24.12;49.14
68994;BME280;56054;50.968;5.816;2023-07-20T16:02:33;100499.16;;;23.90;49.57
68994;BME280;56054;50.968;5.816;2023-07-20T16:05:42;100502.63;;;23.75;49.33
68994;BME280;56054;50.968;5.816;2023-07-20T16:08:49;100499.81;;;23.60;50.26
68994;BME280;56054;50.968;5.816;2023-07-20T16:11:56;100488.31;;;23.56;49.23
68994;BME280;56054;50.968;5.816;2023-07-20T16:15:06;100491.88;;;23.58;48.58
68994;BME280;56054;50.968;5.816;2023-07-20T16:18:13;100483.75;;;23.35;48.97
68994;BME280;56054;50.968;5.816;2023-07-20T16:21:20;100482.88;;;23.36;47.94
68994;BME280;56054;50.968;5.816;2023-07-20T16:24:27;100475.84;;;23.41;47.09
68994;BME280;56054;50.968;5.816;2023-07-20T16:27:34;100477.59;;;23.42;47.23
68994;BME280;56054;50.968;5.816;2023-07-20T16:30:41;100475.84;;;23.44;46.01
68994;BME280;56054;50.968;5.816;2023-07-20T16:33:48;100470.50;;;23.38;46.24
68994;BME280;56054;50.968;5.816;2023-07-20T16:36:55;100475.94;;;23.57;46.96
68994;BME280;56054;50.968;5.816;2023-07-20T16:40:08;100475.94;;;23.60;46.16